Time;durP1;ratioP1;P1;durP2;ratioP2;P2;SDS_P1;SDS_P2;PMS_P1;PMS_P2;Temp;Humidity;BMP_temperature;BMP_pressure;BME280_temperature;BME280_humidity;BME280_pressure;Samples;Min_cycle;Max_cycle;Signal;HPM_P1;HPM_P2
2021/04/27 00:02:12;;;;;;;9.88;3.22;;;8.70;57.50;;;;;;5094149;28;20653;-77
2021/04/27 00:04:37;;;;;;;7.10;2.95;;;8.70;57.70;;;;;;5094753;28;20135;-78
2021/04/27 00:07:03;;;;;;;7.50;2.92;;;8.60;58.00;;;;;;5093494;28;20150;-78
2021/04/27 00:09:29;;;;;;;7.57;3.38;;;8.60;58.30;;;;;;5094662;28;20032;-78
2021/04/27 00:11:55;;;;;;;9.13;2.70;;;8.50;58.40;;;;;;5059141;28;20024;-78
2021/04/27 00:14:20;;;;;;;6.72;2.75;;;8.50;58.60;;;;;;5076668;28;20032;-78
2021/04/27 00:16:46;;;;;;;6.43;2.78;;;8.50;58.80;;;;;;5093340;28;20040;-78
2021/04/27 00:19:12;;;;;;;6.15;3.03;;;8.50;58.90;;;;;;5092417;28;20024;-77
2021/04/27 00:21:39;;;;;;;9.45;3.08;;;8.40;59.20;;;;;;5094425;28;20101;-77
2021/04/27 00:24:05;;;;;;;7.45;3.28;;;8.30;59.60;;;;;;5093039;28;20031;-78
2021/04/27 00:26:31;;;;;;;5.03;2.63;;;8.30;59.80;;;;;;5094272;28;20078;-78
2021/04/27 00:28:56;;;;;;;5.07;2.88;;;8.30;59.90;;;;;;5094308;28;20497;-77
2021/04/27 00:31:22;;;;;;;6.38;2.63;;;8.20;60.00;;;;;;5094357;28;20111;-77
2021/04/27 00:33:48;;;;;;;5.95;3.28;;;8.20;60.30;;;;;;5092618;28;20027;-78
2021/04/27 00:36:13;;;;;;;7.78;2.92;;;8.20;60.40;;;;;;5094119;28;20040;-78
2021/04/27 00:38:39;;;;;;;9.05;2.65;;;8.10;60.70;;;;;;5093955;28;20020;-77
2021/04/27 00:41:04;;;;;;;6.68;2.67;;;8.10;60.90;;;;;;5055891;28;20504;-77
2021/04/27 00:43:30;;;;;;;6.18;3.13;;;8.10;61.30;;;;;;5090237;28;20085;-78
2021/04/27 00:45:56;;;;;;;7.95;3.15;;;8.00;61.40;;;;;;5093723;28;20157;-77
2021/04/27 00:48:22;;;;;;;10.85;2.88;;;8.00;61.50;;;;;;5093725;28;20040;-77
2021/04/27 00:50:48;;;;;;;9.48;3.00;;;8.00;61.90;;;;;;5092304;28;20048;-78
2021/04/27 00:53:13;;;;;;;6.78;2.80;;;7.90;62.10;;;;;;5093553;28;20169;-78
2021/04/27 00:55:39;;;;;;;7.53;3.30;;;7.90;62.30;;;;;;5092054;28;20485;-77
2021/04/27 00:58:06;;;;;;;8.45;2.90;;;7.80;62.50;;;;;;5093421;28;20035;-77
2021/04/27 01:00:38;;;;;;;7.05;3.42;;;7.80;62.60;;;;;;5093266;28;20392;-77
2021/04/27 01:03:04;;;;;;;6.95;2.70;;;7.80;63.10;;;;;;5092122;28;20568;-77
2021/04/27 01:05:33;;;;;;;9.38;3.25;;;7.70;63.30;;;;;;5093200;28;20365;-77
2021/04/27 01:08:17;;;;;;;10.05;2.70;;;7.70;63.50;;;;;;5092459;28;20032;-77
2021/04/27 01:11:05;;;;;;;7.03;3.20;;;7.60;64.20;;;;;;5093152;28;20110;-77
2021/04/27 01:13:51;;;;;;;8.07;2.90;;;7.60;64.20;;;;;;5093512;28;20016;-78
2021/04/27 01:16:18;;;;;;;9.82;3.20;;;7.50;64.30;;;;;;5092392;28;20352;-78
2021/04/27 01:18:51;;;;;;;9.13;3.45;;;7.50;64.60;;;;;;5092286;28;20396;-78
2021/04/27 01:21:18;;;;;;;5.78;2.75;;;7.50;64.60;;;;;;5093601;28;20397;-78
2021/04/27 01:24:22;;;;;;;8.27;3.10;;;7.40;64.70;;;;;;5091272;28;20043;-77
2021/04/27 01:26:58;;;;;;;10.52;3.13;;;7.40;64.80;;;;;;5090378;28;20022;-77
2021/04/27 01:29:28;;;;;;;6.63;2.90;;;7.40;64.70;;;;;;5092055;28;20511;-78
2021/04/27 01:31:58;;;;;;;9.13;3.30;;;7.40;64.80;;;;;;5092215;28;20032;-77
2021/04/27 01:34:26;;;;;;;8.70;3.33;;;7.30;65.10;;;;;;5091258;28;20020;-77
2021/04/27 01:36:53;;;;;;;5.85;2.85;;;7.30;65.30;;;;;;5092951;28;20169;-77
2021/04/27 01:39:20;;;;;;;6.05;3.30;;;7.30;65.30;;;;;;5092870;28;20028;-78
2021/04/27 01:41:47;;;;;;;7.07;3.47;;;7.30;65.30;;;;;;5091625;28;20123;-78
2021/04/27 01:44:14;;;;;;;5.55;3.30;;;7.20;65.50;;;;;;5093021;28;20028;-77
2021/04/27 01:46:42;;;;;;;6.32;3.33;;;7.20;65.60;;;;;;5093226;28;20038;-77
2021/04/27 01:49:08;;;;;;;6.65;3.10;;;7.20;66.00;;;;;;5092748;28;20546;-78
2021/04/27 01:51:33;;;;;;;5.90;3.33;;;7.20;66.10;;;;;;5093329;28;20036;-78
2021/04/27 01:53:59;;;;;;;8.13;3.17;;;7.20;65.90;;;;;;5074974;28;20094;-78
2021/04/27 01:56:25;;;;;;;7.10;3.03;;;7.20;66.00;;;;;;5092966;28;20504;-77
2021/04/27 01:58:51;;;;;;;6.07;3.67;;;7.10;65.90;;;;;;5091549;28;20028;-77
2021/04/27 02:01:17;;;;;;;9.48;3.13;;;7.10;65.90;;;;;;5093378;28;20032;-77
2021/04/27 02:03:45;;;;;;;5.97;3.45;;;7.10;65.90;;;;;;5091480;28;20073;-78
2021/04/27 02:06:11;;;;;;;9.68;3.58;;;7.10;66.20;;;;;;5091897;28;20110;-78
2021/04/27 02:08:46;;;;;;;6.10;3.35;;;7.10;66.20;;;;;;5092858;28;20032;-77
2021/04/27 02:11:11;;;;;;;8.10;3.50;;;7.00;66.10;;;;;;5092460;28;20115;-77
2021/04/27 02:13:37;;;;;;;10.63;3.75;;;7.00;66.20;;;;;;5091402;28;20115;-77
2021/04/27 02:16:04;;;;;;;5.93;3.25;;;7.00;66.20;;;;;;5091233;28;20538;-77
2021/04/27 02:18:33;;;;;;;7.82;3.38;;;7.00;66.00;;;;;;5092496;28;20080;-78
2021/04/27 02:21:00;;;;;;;6.63;3.17;;;7.00;66.00;;;;;;5092928;28;20028;-77
2021/04/27 02:23:31;;;;;;;10.00;3.97;;;6.90;66.00;;;;;;5092290;28;20032;-77
2021/04/27 02:25:58;;;;;;;7.63;3.35;;;6.90;66.10;;;;;;5091895;28;20074;-78
2021/04/27 02:28:25;;;;;;;5.80;2.78;;;6.90;66.10;;;;;;5091096;28;20116;-77
2021/04/27 02:30:53;;;;;;;7.22;3.65;;;6.90;66.10;;;;;;5092398;28;20028;-78
2021/04/27 02:33:20;;;;;;;8.52;3.60;;;6.80;66.10;;;;;;5092102;28;20024;-77
2021/04/27 02:35:47;;;;;;;7.18;3.20;;;6.80;66.20;;;;;;5094156;28;20428;-78
2021/04/27 02:38:16;;;;;;;8.90;3.75;;;6.80;66.20;;;;;;5095088;28;20115;-77
2021/04/27 02:40:42;;;;;;;12.75;3.78;;;6.80;66.30;;;;;;5094743;28;20022;-77
2021/04/27 02:43:07;;;;;;;7.70;3.75;;;6.80;66.40;;;;;;5095998;28;20578;-78
2021/04/27 02:45:33;;;;;;;8.07;3.80;;;6.80;66.30;;;;;;5096073;28;20017;-77
2021/04/27 02:48:11;;;;;;;6.75;3.72;;;6.70;66.30;;;;;;5096245;28;20118;-77
2021/04/27 02:50:39;;;;;;;8.82;4.03;;;6.70;66.30;;;;;;5094508;28;20512;-77
2021/04/27 02:53:05;;;;;;;12.30;3.78;;;6.70;66.20;;;;;;5096093;28;20035;-77
2021/04/27 02:55:30;;;;;;;7.35;3.13;;;6.70;67.00;;;;;;5095849;28;20389;-77
2021/04/27 02:57:56;;;;;;;10.85;3.75;;;6.70;66.40;;;;;;5094428;28;20388;-78
2021/04/27 03:00:22;;;;;;;11.90;4.13;;;6.60;66.20;;;;;;5078190;28;20035;-78
2021/04/27 03:02:47;;;;;;;7.85;3.55;;;6.70;66.40;;;;;;5094888;28;20028;-78
2021/04/27 03:05:13;;;;;;;4.68;3.40;;;6.60;66.40;;;;;;5096002;28;20119;-78
2021/04/27 03:07:39;;;;;;;5.55;3.67;;;6.60;66.40;;;;;;5096188;28;20523;-77
2021/04/27 03:10:05;;;;;;;10.13;3.50;;;6.60;66.40;;;;;;5094113;28;20043;-77
2021/04/27 03:12:31;;;;;;;8.55;4.22;;;6.50;66.30;;;;;;5094769;28;20070;-78
2021/04/27 03:14:57;;;;;;;9.95;4.03;;;6.50;66.20;;;;;;5095023;28;20109;-77
2021/04/27 03:17:22;;;;;;;8.95;3.72;;;6.50;66.30;;;;;;5095551;28;20115;-77
2021/04/27 03:19:48;;;;;;;5.93;3.75;;;6.50;66.50;;;;;;5095448;28;20154;-77
2021/04/27 03:22:14;;;;;;;9.50;4.75;;;6.40;66.50;;;;;;5093920;28;20040;-78
2021/04/27 03:24:39;;;;;;;6.50;3.60;;;6.50;66.50;;;;;;5094079;28;20032;-77
2021/04/27 03:27:06;;;;;;;7.63;3.95;;;6.50;66.50;;;;;;5094041;28;20439;-77
2021/04/27 03:29:31;;;;;;;6.78;3.40;;;6.50;66.40;;;;;;5095278;28;20111;-77
2021/04/27 03:31:57;;;;;;;8.98;4.05;;;6.50;66.40;;;;;;5093267;28;20222;-77
2021/04/27 03:34:23;;;;;;;8.30;4.15;;;6.50;66.40;;;;;;5093556;28;20036;-77
2021/04/27 03:36:48;;;;;;;6.28;3.60;;;6.50;66.40;;;;;;5094282;28;20112;-78
2021/04/27 03:39:14;;;;;;;7.25;3.90;;;6.50;66.30;;;;;;5094825;28;20032;-77
2021/04/27 03:41:40;;;;;;;8.27;4.22;;;6.50;66.30;;;;;;5093543;28;20032;-77
2021/04/27 03:44:05;;;;;;;6.95;3.92;;;6.50;66.40;;;;;;5093212;28;20456;-77
2021/04/27 03:46:31;;;;;;;9.45;4.10;;;6.50;66.40;;;;;;5093672;28;20520;-77
2021/04/27 03:48:57;;;;;;;8.93;3.92;;;6.50;66.40;;;;;;5094693;28;20032;-77
2021/04/27 03:51:23;;;;;;;6.93;4.10;;;6.40;66.30;;;;;;5093369;28;20122;-77
2021/04/27 03:53:49;;;;;;;5.15;3.63;;;6.40;66.30;;;;;;5094258;28;20411;-77
2021/04/27 03:56:15;;;;;;;6.13;3.85;;;6.40;66.30;;;;;;5094506;28;20031;-77
2021/04/27 03:58:41;;;;;;;6.55;3.53;;;6.40;66.30;;;;;;5095012;28;20057;-77
2021/04/27 04:01:08;;;;;;;7.50;4.50;;;6.40;66.40;;;;;;5094301;28;20024;-77
2021/04/27 04:03:37;;;;;;;8.82;4.15;;;6.40;66.40;;;;;;5094356;28;20027;-77
2021/04/27 04:06:03;;;;;;;6.05;4.13;;;6.30;66.50;;;;;;5094223;28;20028;-77
2021/04/27 04:08:29;;;;;;;8.95;4.32;;;6.30;66.60;;;;;;5094221;28;20491;-77
2021/04/27 04:10:54;;;;;;;8.70;4.72;;;6.30;66.70;;;;;;5093878;28;20032;-77
2021/04/27 04:13:20;;;;;;;9.10;4.50;;;6.20;66.70;;;;;;5094210;28;20032;-77
2021/04/27 04:15:45;;;;;;;5.65;4.30;;;6.20;66.90;;;;;;5094059;28;20114;-77
2021/04/27 04:18:11;;;;;;;9.35;4.65;;;6.20;67.60;;;;;;5092568;28;20035;-77
2021/04/27 04:20:37;;;;;;;7.32;4.55;;;6.10;67.70;;;;;;5093667;28;20392;-77
2021/04/27 04:23:04;;;;;;;10.15;4.80;;;6.10;67.00;;;;;;5092574;28;20040;-77
2021/04/27 04:25:30;;;;;;;9.07;4.68;;;6.10;67.10;;;;;;5094114;28;20055;-77
2021/04/27 04:27:55;;;;;;;11.10;4.45;;;6.00;67.20;;;;;;5094028;28;20481;-77
2021/04/27 04:30:24;;;;;;;7.60;4.72;;;6.00;67.30;;;;;;5092556;28;20036;-77
2021/04/27 04:32:50;;;;;;;8.70;4.38;;;6.10;67.30;;;;;;5093562;28;20024;-77
2021/04/27 04:35:18;;;;;;;7.90;4.38;;;6.00;67.10;;;;;;5093180;28;20032;-77
2021/04/27 04:37:44;;;;;;;11.52;4.82;;;6.00;67.30;;;;;;5093733;28;20017;-77
2021/04/27 04:40:12;;;;;;;7.50;4.82;;;6.00;67.40;;;;;;5092825;28;20455;-77
2021/04/27 04:42:38;;;;;;;9.55;4.93;;;6.00;67.40;;;;;;5093976;28;20012;-77
2021/04/27 04:45:05;;;;;;;9.32;5.00;;;6.00;67.40;;;;;;5092595;28;20052;-78
2021/04/27 04:47:31;;;;;;;10.30;4.45;;;6.00;67.60;;;;;;5091442;28;20032;-77
2021/04/27 04:49:56;;;;;;;10.45;5.07;;;6.00;67.60;;;;;;5092912;28;20116;-78
2021/04/27 04:52:22;;;;;;;10.02;4.97;;;5.90;67.60;;;;;;5093192;28;20531;-77
2021/04/27 04:54:48;;;;;;;10.50;5.30;;;5.90;67.60;;;;;;5091951;28;20039;-77
2021/04/27 04:57:13;;;;;;;15.32;5.38;;;6.00;67.70;;;;;;5093026;28;20389;-77
2021/04/27 04:59:39;;;;;;;8.43;4.88;;;6.00;67.60;;;;;;5091912;28;20103;-77
2021/04/27 05:02:05;;;;;;;11.50;5.20;;;5.90;67.60;;;;;;5093201;28;20040;-77
2021/04/27 05:04:30;;;;;;;12.35;5.43;;;5.90;67.60;;;;;;5093293;28;20382;-77
2021/04/27 05:07:03;;;;;;;11.93;5.68;;;5.90;67.70;;;;;;5092860;28;20036;-77
2021/04/27 05:09:29;;;;;;;7.47;4.68;;;5.90;67.80;;;;;;5073277;28;20453;-78
2021/04/27 05:11:56;;;;;;;8.48;4.82;;;5.90;67.70;;;;;;5090930;28;20127;-77
2021/04/27 05:14:21;;;;;;;10.77;5.03;;;6.00;67.50;;;;;;5092774;28;20028;-77
2021/04/27 05:16:47;;;;;;;9.85;5.10;;;6.00;67.30;;;;;;5091739;28;20031;-77
2021/04/27 05:19:13;;;;;;;7.35;5.07;;;6.00;67.20;;;;;;5093001;28;20027;-77
2021/04/27 05:21:39;;;;;;;15.05;5.75;;;6.10;67.00;;;;;;5093005;28;20032;-77
2021/04/27 05:24:06;;;;;;;8.70;4.97;;;6.20;66.90;;;;;;5092293;28;20109;-77
2021/04/27 05:26:31;;;;;;;8.98;5.05;;;6.20;66.50;;;;;;5092437;28;20031;-77
2021/04/27 05:28:57;;;;;;;11.15;5.30;;;6.30;66.20;;;;;;5091805;28;20040;-77
2021/04/27 05:31:23;;;;;;;10.15;5.22;;;6.40;65.90;;;;;;5092388;28;20125;-77
2021/04/27 05:33:48;;;;;;;13.23;5.38;;;6.40;66.20;;;;;;5075129;28;20024;-77
2021/04/27 05:36:14;;;;;;;9.50;5.80;;;6.50;65.40;;;;;;5091093;28;20097;-77
2021/04/27 05:38:39;;;;;;;13.18;5.50;;;6.50;65.30;;;;;;5092021;28;20115;-77
2021/04/27 05:41:05;;;;;;;7.78;4.85;;;6.60;65.10;;;;;;5092989;28;20118;-77
2021/04/27 05:43:31;;;;;;;14.48;5.57;;;6.70;64.80;;;;;;5074810;28;20036;-78
2021/04/27 05:45:56;;;;;;;13.48;5.55;;;6.70;64.10;;;;;;5091427;28;20040;-77
2021/04/27 05:48:22;;;;;;;7.60;5.05;;;6.80;64.30;;;;;;5091504;28;20042;-77
2021/04/27 05:50:48;;;;;;;11.15;5.13;;;6.90;63.30;;;;;;5092363;28;20618;-78
2021/04/27 05:53:14;;;;;;;10.70;4.72;;;7.00;63.20;;;;;;5092118;28;20025;-77
2021/04/27 05:55:40;;;;;;;9.18;5.07;;;7.00;62.80;;;;;;5092758;28;20008;-77
2021/04/27 05:58:07;;;;;;;9.07;4.60;;;7.10;63.20;;;;;;5092850;28;20119;-77
2021/04/27 06:00:34;;;;;;;6.53;4.78;;;7.20;62.10;;;;;;5091648;28;20366;-77
2021/04/27 06:03:00;;;;;;;6.63;4.40;;;7.40;62.40;;;;;;5092840;28;20024;-77
2021/04/27 06:05:26;;;;;;;6.82;4.50;;;7.40;61.10;;;;;;5092594;28;20089;-77
2021/04/27 06:07:51;;;;;;;11.77;4.78;;;7.60;60.10;;;;;;5092767;28;20040;-77
2021/04/27 06:10:17;;;;;;;8.10;4.55;;;7.70;59.80;;;;;;5097356;28;20035;-77
2021/04/27 06:12:42;;;;;;;9.27;4.20;;;7.80;59.50;;;;;;5096444;28;20027;-78
2021/04/27 06:15:09;;;;;;;8.38;3.80;;;8.00;59.40;;;;;;5098963;28;20398;-77
2021/04/27 06:17:35;;;;;;;10.85;3.78;;;8.10;58.40;;;;;;5100579;28;20077;-77
2021/04/27 06:20:05;;;;;;;4.60;3.22;;;8.20;57.40;;;;;;5097183;28;20012;-77
2021/04/27 06:22:31;;;;;;;16.83;3.72;;;8.30;56.90;;;;;;5096494;28;20059;-77
2021/04/27 06:24:57;;;;;;;7.22;3.70;;;8.30;55.80;;;;;;5096928;28;20082;-77
2021/04/27 06:27:24;;;;;;;6.78;3.53;;;8.50;54.90;;;;;;5095426;28;20077;-77
2021/04/27 06:29:50;;;;;;;8.88;3.38;;;8.60;54.30;;;;;;5095868;28;20086;-77
2021/04/27 06:32:16;;;;;;;9.57;3.60;;;8.70;53.90;;;;;;5095539;28;20040;-78
2021/04/27 06:34:42;;;;;;;5.57;3.05;;;8.90;53.50;;;;;;5096719;28;20082;-77
2021/04/27 06:37:08;;;;;;;11.52;2.97;;;9.00;53.30;;;;;;5094919;28;20040;-78
2021/04/27 06:39:34;;;;;;;11.00;3.15;;;9.20;52.70;;;;;;5095001;28;20465;-77
2021/04/27 06:41:59;;;;;;;13.23;3.15;;;9.40;51.60;;;;;;5095461;28;20031;-78
2021/04/27 06:44:25;;;;;;;8.90;2.83;;;9.50;51.60;;;;;;5094946;28;20059;-77
2021/04/27 06:46:50;;;;;;;5.75;2.88;;;9.70;50.80;;;;;;5094935;28;20096;-78
2021/04/27 06:49:16;;;;;;;5.97;3.00;;;9.80;50.60;;;;;;5094821;28;20036;-77
2021/04/27 06:51:42;;;;;;;6.13;2.35;;;10.00;50.20;;;;;;5096361;28;20039;-77
2021/04/27 06:54:07;;;;;;;8.30;2.90;;;10.10;48.00;;;;;;5095178;28;20062;-77
2021/04/27 06:56:33;;;;;;;8.20;3.00;;;10.20;47.90;;;;;;5095995;28;20025;-77
2021/04/27 06:58:58;;;;;;;5.30;2.67;;;10.30;47.20;;;;;;5095703;28;20043;-77
2021/04/27 07:01:24;;;;;;;5.88;2.38;;;10.40;47.20;;;;;;5089655;28;20028;-77
2021/04/27 07:03:50;;;;;;;6.03;2.47;;;10.30;47.80;;;;;;5095590;28;20031;-77
2021/04/27 07:06:16;;;;;;;6.82;2.47;;;10.30;48.00;;;;;;5096096;28;20059;-77
2021/04/27 07:08:43;;;;;;;6.68;2.80;;;10.20;47.60;;;;;;5097941;28;20028;-77
2021/04/27 07:11:09;;;;;;;6.38;2.28;;;10.20;47.20;;;;;;5099156;28;20472;-77
2021/04/27 07:13:36;;;;;;;5.18;2.67;;;10.30;47.40;;;;;;5095353;28;20082;-77
2021/04/27 07:16:02;;;;;;;5.97;2.53;;;10.30;47.00;;;;;;5094138;28;20084;-77
2021/04/27 07:18:27;;;;;;;9.63;2.60;;;10.40;47.10;;;;;;5094066;28;20111;-77
2021/04/27 07:20:53;;;;;;;5.03;2.30;;;10.50;46.80;;;;;;5095259;28;20025;-77
2021/04/27 07:23:19;;;;;;;10.73;2.40;;;10.60;46.50;;;;;;5094208;28;20666;-77
2021/04/27 07:25:45;;;;;;;5.55;2.45;;;10.70;46.60;;;;;;5094621;28;20032;-77
2021/04/27 07:28:10;;;;;;;7.53;2.67;;;10.80;45.60;;;;;;5095031;28;20039;-77
2021/04/27 07:30:37;;;;;;;5.30;2.42;;;10.80;45.40;;;;;;5093585;28;20043;-77
2021/04/27 07:33:04;;;;;;;7.03;2.10;;;10.80;45.70;;;;;;5093674;28;20036;-78
2021/04/27 07:35:30;;;;;;;4.65;2.30;;;11.00;45.60;;;;;;5093644;28;20377;-77
2021/04/27 07:38:00;;;;;;;5.38;1.90;;;11.30;45.40;;;;;;5095447;28;20032;-77
2021/04/27 07:40:27;;;;;;;8.13;2.30;;;11.70;45.00;;;;;;5095172;28;20030;-77
2021/04/27 07:42:53;;;;;;;5.57;2.38;;;11.90;44.00;;;;;;5095168;28;20500;-77
2021/04/27 07:45:18;;;;;;;5.05;2.05;;;11.80;43.50;;;;;;5095236;28;20056;-77
2021/04/27 07:47:44;;;;;;;6.40;2.20;;;11.80;43.70;;;;;;5094876;28;20362;-77
2021/04/27 07:50:10;;;;;;;6.50;1.90;;;11.60;43.80;;;;;;5091821;28;20038;-78
2021/04/27 07:52:38;;;;;;;8.57;2.00;;;11.60;44.00;;;;;;5094549;28;20035;-78
2021/04/27 07:55:05;;;;;;;7.10;2.20;;;11.60;44.20;;;;;;5094293;28;20020;-77
2021/04/27 07:57:31;;;;;;;7.88;2.00;;;11.80;43.60;;;;;;5093773;28;20028;-78
2021/04/27 07:59:57;;;;;;;7.93;2.05;;;12.10;42.90;;;;;;5075605;28;20059;-77
2021/04/27 08:02:22;;;;;;;4.25;2.20;;;12.40;42.50;;;;;;5092914;28;20495;-78
2021/04/27 08:04:49;;;;;;;6.72;2.25;;;12.60;41.80;;;;;;5094896;28;20024;-77
2021/04/27 08:07:14;;;;;;;3.92;2.05;;;12.90;41.60;;;;;;5094977;28;20043;-77
2021/04/27 08:09:40;;;;;;;9.85;2.47;;;13.00;41.20;;;;;;5094173;28;20469;-78
2021/04/27 08:12:06;;;;;;;9.80;2.10;;;13.20;41.30;;;;;;5092812;28;20081;-78
2021/04/27 08:14:32;;;;;;;6.25;2.13;;;13.40;40.80;;;;;;5093949;28;20036;-77
2021/04/27 08:16:58;;;;;;;4.82;2.42;;;13.60;40.60;;;;;;5093116;28;20028;-77
2021/04/27 08:19:24;;;;;;;5.22;2.20;;;13.70;40.20;;;;;;5094009;28;20032;-77
2021/04/27 08:21:49;;;;;;;6.75;2.10;;;13.60;39.60;;;;;;5094110;28;20031;-77
2021/04/27 08:24:15;;;;;;;3.50;1.90;;;13.50;39.60;;;;;;5092911;28;20500;-77
2021/04/27 08:26:41;;;;;;;3.90;2.17;;;13.60;40.00;;;;;;5105460;28;20031;-78
2021/04/27 08:29:06;;;;;;;6.32;1.75;;;13.70;39.70;;;;;;5096399;28;20063;-78
2021/04/27 08:31:32;;;;;;;8.50;2.08;;;13.80;39.80;;;;;;5092425;28;20078;-78
2021/04/27 08:33:59;;;;;;;5.50;1.77;;;14.00;39.40;;;;;;5098405;28;20027;-78
2021/04/27 08:36:25;;;;;;;4.53;1.77;;;14.20;38.80;;;;;;5082498;28;20040;-77
2021/04/27 08:38:51;;;;;;;6.93;2.55;;;14.30;38.80;;;;;;5104812;28;20076;-78
2021/04/27 08:41:17;;;;;;;6.30;2.00;;;14.40;38.20;;;;;;5100429;28;20105;-77
2021/04/27 08:43:42;;;;;;;8.48;2.40;;;14.50;38.20;;;;;;5092606;28;20032;-77
2021/04/27 08:46:08;;;;;;;9.25;2.40;;;14.60;38.20;;;;;;5093110;28;20362;-77
2021/04/27 08:48:34;;;;;;;7.38;2.13;;;14.70;37.80;;;;;;5094014;28;20020;-78
2021/04/27 08:51:00;;;;;;;4.45;2.13;;;14.90;38.00;;;;;;5093723;28;20441;-78
2021/04/27 08:53:25;;;;;;;12.73;2.45;;;15.00;38.50;;;;;;5094073;28;20051;-79
2021/04/27 08:55:51;;;;;;;7.78;2.10;;;15.10;38.40;;;;;;5093789;28;20024;-79
2021/04/27 08:58:18;;;;;;;5.40;2.03;;;15.30;38.10;;;;;;5093967;28;20021;-78
2021/04/27 09:00:45;;;;;;;7.22;2.20;;;15.40;37.80;;;;;;5093021;28;20031;-77
2021/04/27 09:03:11;;;;;;;5.15;1.90;;;15.50;37.50;;;;;;5091464;28;20111;-77
2021/04/27 09:05:40;;;;;;;7.55;2.25;;;15.50;36.70;;;;;;5075346;28;20442;-78
2021/04/27 09:10:45;;;;;;;6.18;1.85;;;15.60;36.40;;;;;;5102792;27;20797;-79
2021/04/27 09:13:16;;;;;;;26.65;2.78;;;15.60;37.20;;;;;;5082434;28;20464;-79
2021/04/27 09:15:44;;;;;;;2.72;1.80;;;15.70;36.40;;;;;;5110436;28;20032;-79
2021/04/27 09:18:28;;;;;;;6.97;2.40;;;15.80;36.30;;;;;;5092901;28;20059;-78
2021/04/27 09:20:59;;;;;;;5.57;2.22;;;15.80;36.10;;;;;;5091977;28;20027;-78
2021/04/27 09:23:26;;;;;;;6.30;2.35;;;15.90;35.80;;;;;;5126859;28;20096;-78
2021/04/27 09:26:12;;;;;;;9.63;2.50;;;15.90;36.00;;;;;;5099355;28;20029;-78
2021/04/27 09:28:49;;;;;;;4.05;2.35;;;16.10;35.50;;;;;;5090490;28;20094;-78
2021/04/27 09:31:36;;;;;;;3.22;2.05;;;16.30;35.80;;;;;;5090510;28;20087;-78
2021/04/27 09:34:28;;;;;;;6.60;2.40;;;16.40;34.60;;;;;;5090584;28;20465;-78
2021/04/27 09:36:55;;;;;;;4.80;2.10;;;16.40;34.20;;;;;;5092481;28;20491;-78
2021/04/27 09:39:51;;;;;;;7.63;2.20;;;16.40;34.00;;;;;;5110819;28;20032;-78
2021/04/27 09:42:26;;;;;;;5.22;2.05;;;16.40;33.40;;;;;;5110644;28;20024;-78
2021/04/27 09:44:56;;;;;;;4.97;2.30;;;16.50;34.00;;;;;;5104711;28;20032;-78
2021/04/27 09:47:33;;;;;;;3.22;2.00;;;16.60;33.80;;;;;;5075338;28;20030;-78
2021/04/27 09:50:00;;;;;;;6.32;1.77;;;16.70;33.60;;;;;;5110196;28;20485;-78
2021/04/27 09:52:26;;;;;;;4.63;2.33;;;16.90;33.20;;;;;;5092290;28;20034;-78
2021/04/27 09:55:25;;;;;;;3.50;2.00;;;17.00;32.60;;;;;;5110426;28;20024;-78
2021/04/27 09:57:54;;;;;;;5.35;2.33;;;17.10;32.50;;;;;;5050277;28;20549;-79
2021/04/27 10:00:22;;;;;;;3.92;2.50;;;17.20;32.00;;;;;;5109950;28;20089;-78
2021/04/27 10:02:49;;;;;;;5.82;2.50;;;17.30;31.60;;;;;;5091856;28;20016;-77
2021/04/27 10:05:15;;;;;;;5.93;2.33;;;17.30;31.60;;;;;;5109816;28;20487;-77
2021/04/27 10:07:41;;;;;;;6.93;2.10;;;17.40;31.50;;;;;;5110195;28;20036;-78
2021/04/27 10:10:08;;;;;;;5.60;2.50;;;17.50;31.40;;;;;;5091474;28;20044;-77
2021/04/27 10:12:35;;;;;;;5.43;2.13;;;17.60;31.60;;;;;;5114457;28;20073;-77
2021/04/27 10:15:01;;;;;;;4.28;2.28;;;17.70;31.20;;;;;;5089588;28;20052;-79
2021/04/27 10:17:27;;;;;;;4.28;2.28;;;17.80;31.50;;;;;;5091054;28;20073;-74
2021/04/27 10:19:54;;;;;;;2.55;1.70;;;17.80;31.70;;;;;;5089027;28;20086;-73
2021/04/27 10:22:19;;;;;;;4.60;1.95;;;17.90;32.60;;;;;;5055204;28;20024;-72
2021/04/27 10:24:46;;;;;;;6.60;2.35;;;18.00;32.60;;;;;;5082514;28;20397;-73
2021/04/27 10:27:13;;;;;;;7.10;2.50;;;18.10;32.10;;;;;;5075374;28;20572;-73
2021/04/27 10:29:39;;;;;;;3.95;2.30;;;18.10;31.30;;;;;;5075977;28;20444;-73
2021/04/27 10:32:25;;;;;;;5.68;2.33;;;18.10;30.20;;;;;;5083196;28;20036;-73
2021/04/27 10:34:57;;;;;;;4.97;2.40;;;18.20;30.00;;;;;;5085669;28;20052;-73
2021/04/27 10:37:28;;;;;;;3.13;2.55;;;18.30;30.30;;;;;;5075619;28;20384;-73
2021/04/27 10:39:54;;;;;;;4.60;2.25;;;18.40;30.00;;;;;;5083938;28;20072;-73
2021/04/27 10:42:31;;;;;;;5.00;2.42;;;18.40;29.40;;;;;;5068707;28;20038;-73
2021/04/27 10:45:16;;;;;;;5.93;2.25;;;18.40;29.90;;;;;;5082144;28;20071;-73
2021/04/27 10:47:43;;;;;;;4.65;2.55;;;18.50;29.80;;;;;;5064212;28;20039;-73
2021/04/27 10:50:26;;;;;;;3.70;2.45;;;18.40;29.80;;;;;;5088010;28;20089;-73
2021/04/27 10:52:51;;;;;;;4.18;2.45;;;18.40;29.70;;;;;;5083118;28;20025;-73
2021/04/27 10:55:29;;;;;;;6.05;2.70;;;18.40;29.30;;;;;;5084291;28;20093;-73
2021/04/27 10:58:01;;;;;;;6.45;2.45;;;18.40;29.50;;;;;;5096332;28;20020;-73
2021/04/27 11:00:35;;;;;;;3.78;2.20;;;18.40;29.70;;;;;;5094884;28;20028;-74
2021/04/27 11:03:25;;;;;;;3.15;2.15;;;18.50;29.70;;;;;;5095298;28;20066;-74
2021/04/27 11:06:07;;;;;;;4.97;2.60;;;18.70;29.60;;;;;;5074580;28;20081;-74
2021/04/27 11:08:50;;;;;;;4.53;2.55;;;18.80;29.60;;;;;;5108104;28;20089;-73
2021/04/27 11:11:21;;;;;;;5.25;2.80;;;18.90;29.30;;;;;;5086405;28;20466;-73
2021/04/27 11:13:47;;;;;;;5.50;2.67;;;19.10;29.60;;;;;;5075486;28;20021;-74
2021/04/27 11:16:28;;;;;;;4.28;2.30;;;19.20;30.00;;;;;;5075564;28;20078;-74
2021/04/27 11:19:32;;;;;;;5.40;2.65;;;19.30;29.20;;;;;;5093236;28;20115;-74
2021/04/27 11:22:18;;;;;;;3.20;2.53;;;19.30;29.30;;;;;;5092282;28;20035;-75
2021/04/27 11:24:45;;;;;;;4.15;3.03;;;19.40;29.20;;;;;;5058259;28;20484;-74
2021/04/27 11:27:26;;;;;;;7.22;3.17;;;19.40;29.00;;;;;;5089573;28;20035;-75
2021/04/27 11:30:11;;;;;;;5.53;2.95;;;19.40;29.40;;;;;;5074151;28;20048;-75
2021/04/27 11:32:42;;;;;;;3.85;2.58;;;19.40;28.90;;;;;;5088656;28;20622;-75
2021/04/27 11:35:19;;;;;;;4.05;2.40;;;19.60;29.20;;;;;;5074098;28;20405;-75
2021/04/27 11:37:52;;;;;;;4.30;2.40;;;19.70;28.70;;;;;;5092914;28;20142;-75
2021/04/27 11:40:38;;;;;;;9.98;2.97;;;19.80;28.70;;;;;;5095444;28;20456;-75
2021/04/27 11:43:04;;;;;;;5.30;2.90;;;20.00;28.10;;;;;;5099627;28;20441;-75
2021/04/27 11:45:33;;;;;;;3.65;2.70;;;19.90;28.20;;;;;;5097019;28;20016;-75
2021/04/27 11:48:00;;;;;;;10.10;2.83;;;20.00;28.20;;;;;;5094483;28;20016;-75
2021/04/27 11:50:27;;;;;;;5.20;2.97;;;20.00;28.30;;;;;;5073720;28;20047;-74
2021/04/27 11:53:01;;;;;;;9.23;3.13;;;19.90;28.10;;;;;;5093965;28;20141;-75
2021/04/27 11:55:50;;;;;;;4.93;3.00;;;19.80;28.10;;;;;;5093906;28;20065;-74
2021/04/27 11:58:23;;;;;;;5.38;2.53;;;19.70;28.70;;;;;;5093799;28;20016;-74
2021/04/27 12:01:03;;;;;;;4.32;2.55;;;19.80;28.90;;;;;;5093792;28;20099;-74
2021/04/27 12:03:42;;;;;;;5.35;2.65;;;20.00;28.40;;;;;;5075499;28;20020;-74
2021/04/27 12:06:08;;;;;;;6.20;2.80;;;20.20;27.70;;;;;;5075519;28;20020;-74
2021/04/27 12:08:35;;;;;;;7.03;3.17;;;20.20;27.90;;;;;;5092821;28;20035;-74
2021/04/27 12:11:26;;;;;;;4.63;2.78;;;20.20;26.90;;;;;;5093606;28;20050;-74
2021/04/27 12:14:13;;;;;;;4.82;2.97;;;20.10;27.50;;;;;;5075390;28;20023;-75
2021/04/27 12:16:43;;;;;;;6.95;2.70;;;19.90;28.10;;;;;;5093591;28;20653;-75
2021/04/27 12:19:26;;;;;;;6.60;2.75;;;19.80;28.60;;;;;;5093585;28;20089;-75
2021/04/27 12:22:00;;;;;;;4.47;2.58;;;19.70;28.00;;;;;;5076216;28;20032;-74
2021/04/27 12:24:32;;;;;;;4.22;2.78;;;19.60;28.00;;;;;;5093053;28;20056;-75
2021/04/27 12:27:11;;;;;;;2.90;2.45;;;19.50;27.70;;;;;;5093347;28;20027;-74
2021/04/27 12:30:16;;;;;;;4.18;2.58;;;19.60;28.20;;;;;;5093269;28;20031;-74
2021/04/27 12:32:48;;;;;;;5.05;2.20;;;19.80;28.30;;;;;;5093353;28;20429;-74
2021/04/27 12:35:23;;;;;;;3.33;2.50;;;20.00;28.30;;;;;;5093263;28;20027;-74
2021/04/27 12:38:16;;;;;;;7.38;2.15;;;20.20;28.30;;;;;;5092985;28;20027;-74
2021/04/27 12:40:53;;;;;;;4.68;2.70;;;20.40;27.80;;;;;;5071675;28;20121;-74
2021/04/27 12:43:32;;;;;;;3.85;2.42;;;20.40;27.40;;;;;;5092909;28;20016;-74
2021/04/27 12:45:59;;;;;;;7.63;2.50;;;20.30;26.60;;;;;;5093073;28;20020;-74
2021/04/27 12:48:28;;;;;;;4.68;2.70;;;20.30;26.40;;;;;;5093036;28;20078;-74
2021/04/27 12:51:05;;;;;;;6.03;2.63;;;20.40;26.50;;;;;;5092677;28;20024;-74
2021/04/27 12:53:42;;;;;;;5.93;2.38;;;20.50;26.80;;;;;;5072685;28;20036;-74
2021/04/27 12:56:16;;;;;;;3.85;2.80;;;20.40;27.20;;;;;;5072763;28;20657;-74
2021/04/27 12:58:44;;;;;;;4.38;2.60;;;20.50;27.00;;;;;;5072756;28;20118;-74
2021/04/27 13:01:17;;;;;;;5.22;2.65;;;20.50;26.90;;;;;;5072728;28;20039;-74
2021/04/27 13:03:48;;;;;;;5.45;2.60;;;20.60;27.10;;;;;;5054663;28;20405;-74